sensor_id;sensor_type;location;lat;lon;timestamp;pressure;altitude;pressure_sealevel;temperature;humidity
44140;BME280;29803;51.048;4.686;2024-03-02T00:01:22;99820.16;;;7.72;100.00
44140;BME280;29803;51.048;4.686;2024-03-02T00:03:53;99818.66;;;7.69;100.00
44140;BME280;29803;51.048;4.686;2024-03-02T00:06:23;99818.50;;;7.71;100.00
44140;BME280;29803;51.048;4.686;2024-03-02T00:08:57;99819.44;;;7.78;100.00
44140;BME280;29803;51.048;4.686;2024-03-02T00:11:28;99817.97;;;7.75;100.00
44140;BME280;29803;51.048;4.686;2024-03-02T00:13:59;99805.84;;;7.65;100.00
44140;BME280;29803;51.048;4.686;2024-03-02T00:16:31;99821.13;;;7.79;100.00
44140;BME280;29803;51.048;4.686;2024-03-02T00:19:03;99812.94;;;7.81;100.00
44140;BME280;29803;51.048;4.686;2024-03-02T00:21:34;99830.97;;;7.78;100.00
44140;BME280;29803;51.048;4.686;2024-03-02T00:24:21;99826.50;;;7.71;100.00
44140;BME280;29803;51.048;4.686;2024-03-02T00:26:52;99823.31;;;7.75;100.00
44140;BME280;29803;51.048;4.686;2024-03-02T00:29:22;99818.78;;;7.76;100.00
44140;BME280;29803;51.048;4.686;2024-03-02T00:31:53;99818.34;;;7.64;100.00
44140;BME280;29803;51.048;4.686;2024-03-02T00:34:24;99828.03;;;7.57;100.00
44140;BME280;29803;51.048;4.686;2024-03-02T00:36:57;99819.00;;;7.66;100.00
44140;BME280;29803;51.048;4.686;2024-03-02T00:39:30;99840.03;;;7.69;100.00
44140;BME280;29803;51.048;4.686;2024-03-02T00:42:00;99837.19;;;7.63;100.00
44140;BME280;29803;51.048;4.686;2024-03-02T00:44:33;99839.84;;;7.63;100.00
44140;BME280;29803;51.048;4.686;2024-03-02T00:47:06;99823.31;;;7.67;100.00
44140;BME280;29803;51.048;4.686;2024-03-02T00:49:37;99836.41;;;7.54;100.00
44140;BME280;29803;51.048;4.686;2024-03-02T00:52:08;99849.56;;;7.47;100.00
44140;BME280;29803;51.048;4.686;2024-03-02T00:54:38;99848.25;;;7.51;100.00
44140;BME280;29803;51.048;4.686;2024-03-02T00:57:10;99833.56;;;7.47;100.00
44140;BME280;29803;51.048;4.686;2024-03-02T00:59:42;99827.41;;;7.47;100.00
44140;BME280;29803;51.048;4.686;2024-03-02T01:02:12;99823.38;;;7.51;100.00
44140;BME280;29803;51.048;4.686;2024-03-02T01:04:43;99827.25;;;7.48;100.00
44140;BME280;29803;51.048;4.686;2024-03-02T01:07:13;99837.41;;;7.45;100.00
44140;BME280;29803;51.048;4.686;2024-03-02T01:09:44;99867.47;;;7.39;100.00
44140;BME280;29803;51.048;4.686;2024-03-02T01:12:15;99863.09;;;7.46;100.00
44140;BME280;29803;51.048;4.686;2024-03-02T01:14:45;99831.25;;;7.44;100.00
44140;BME280;29803;51.048;4.686;2024-03-02T01:17:16;99826.94;;;7.43;100.00
44140;BME280;29803;51.048;4.686;2024-03-02T01:19:46;99844.97;;;7.33;100.00
44140;BME280;29803;51.048;4.686;2024-03-02T01:22:17;99850.25;;;7.41;100.00
44140;BME280;29803;51.048;4.686;2024-03-02T01:24:50;99842.94;;;7.43;100.00
44140;BME280;29803;51.048;4.686;2024-03-02T01:27:20;99861.44;;;7.45;100.00
44140;BME280;29803;51.048;4.686;2024-03-02T01:29:51;99848.97;;;7.29;100.00
44140;BME280;29803;51.048;4.686;2024-03-02T01:32:21;99858.44;;;7.40;100.00
44140;BME280;29803;51.048;4.686;2024-03-02T01:34:52;99867.78;;;7.44;100.00
44140;BME280;29803;51.048;4.686;2024-03-02T01:37:22;99868.28;;;7.39;100.00
44140;BME280;29803;51.048;4.686;2024-03-02T01:39:52;99847.28;;;7.36;100.00
44140;BME280;29803;51.048;4.686;2024-03-02T01:42:23;99858.91;;;7.51;100.00
44140;BME280;29803;51.048;4.686;2024-03-02T01:44:53;99857.13;;;7.44;100.00
44140;BME280;29803;51.048;4.686;2024-03-02T01:47:24;99866.41;;;7.48;100.00
44140;BME280;29803;51.048;4.686;2024-03-02T01:49:54;99863.25;;;7.52;100.00
44140;BME280;29803;51.048;4.686;2024-03-02T01:52:26;99866.09;;;7.51;100.00
44140;BME280;29803;51.048;4.686;2024-03-02T01:54:56;99859.09;;;7.58;100.00
44140;BME280;29803;51.048;4.686;2024-03-02T01:57:27;99866.63;;;7.38;100.00
44140;BME280;29803;51.048;4.686;2024-03-02T01:59:57;99860.44;;;7.38;100.00
44140;BME280;29803;51.048;4.686;2024-03-02T02:02:28;99861.97;;;7.24;100.00
44140;BME280;29803;51.048;4.686;2024-03-02T02:04:59;99865.13;;;7.27;100.00
44140;BME280;29803;51.048;4.686;2024-03-02T02:07:29;99859.78;;;7.27;100.00
44140;BME280;29803;51.048;4.686;2024-03-02T02:10:02;99870.31;;;7.21;100.00
44140;BME280;29803;51.048;4.686;2024-03-02T02:12:42;99872.16;;;7.20;100.00
44140;BME280;29803;51.048;4.686;2024-03-02T02:15:23;99861.94;;;7.40;100.00
44140;BME280;29803;51.048;4.686;2024-03-02T02:17:54;99850.44;;;7.40;100.00
44140;BME280;29803;51.048;4.686;2024-03-02T02:20:25;99852.63;;;7.28;100.00
44140;BME280;29803;51.048;4.686;2024-03-02T02:22:59;99854.59;;;7.42;100.00
44140;BME280;29803;51.048;4.686;2024-03-02T02:25:29;99855.72;;;7.56;100.00
44140;BME280;29803;51.048;4.686;2024-03-02T02:28:02;99859.94;;;7.42;100.00
44140;BME280;29803;51.048;4.686;2024-03-02T02:30:32;99856.25;;;7.51;100.00
44140;BME280;29803;51.048;4.686;2024-03-02T02:33:03;99861.25;;;7.55;100.00
44140;BME280;29803;51.048;4.686;2024-03-02T02:35:33;99858.59;;;7.46;100.00
44140;BME280;29803;51.048;4.686;2024-03-02T02:38:04;99855.09;;;7.46;100.00
44140;BME280;29803;51.048;4.686;2024-03-02T02:40:35;99854.06;;;7.63;100.00
44140;BME280;29803;51.048;4.686;2024-03-02T02:43:05;99858.06;;;7.59;100.00
44140;BME280;29803;51.048;4.686;2024-03-02T02:45:37;99851.91;;;7.59;100.00
44140;BME280;29803;51.048;4.686;2024-03-02T02:48:07;99850.22;;;7.58;100.00
44140;BME280;29803;51.048;4.686;2024-03-02T02:50:37;99850.69;;;7.69;100.00
44140;BME280;29803;51.048;4.686;2024-03-02T02:53:11;99857.53;;;7.72;100.00
44140;BME280;29803;51.048;4.686;2024-03-02T02:55:42;99857.91;;;7.61;100.00
44140;BME280;29803;51.048;4.686;2024-03-02T02:58:13;99858.06;;;7.59;100.00
44140;BME280;29803;51.048;4.686;2024-03-02T03:00:45;99850.22;;;7.58;100.00
44140;BME280;29803;51.048;4.686;2024-03-02T03:03:16;99855.56;;;7.58;100.00
44140;BME280;29803;51.048;4.686;2024-03-02T03:05:48;99857.19;;;7.67;100.00
44140;BME280;29803;51.048;4.686;2024-03-02T03:08:26;99859.22;;;7.57;100.00
44140;BME280;29803;51.048;4.686;2024-03-02T03:10:56;99847.72;;;7.56;100.00
44140;BME280;29803;51.048;4.686;2024-03-02T03:13:27;99852.56;;;7.61;100.00
44140;BME280;29803;51.048;4.686;2024-03-02T03:15:58;99847.41;;;7.59;100.00
44140;BME280;29803;51.048;4.686;2024-03-02T03:18:29;99844.56;;;7.52;100.00
44140;BME280;29803;51.048;4.686;2024-03-02T03:20:59;99852.94;;;7.41;100.00
44140;BME280;29803;51.048;4.686;2024-03-02T03:23:30;99845.25;;;7.46;100.00
44140;BME280;29803;51.048;4.686;2024-03-02T03:26:00;99843.72;;;7.52;100.00
44140;BME280;29803;51.048;4.686;2024-03-02T03:28:38;99837.47;;;7.29;100.00
44140;BME280;29803;51.048;4.686;2024-03-02T03:31:11;99849.94;;;7.36;100.00
44140;BME280;29803;51.048;4.686;2024-03-02T03:33:41;99839.31;;;7.20;100.00
44140;BME280;29803;51.048;4.686;2024-03-02T03:36:12;99836.97;;;7.17;100.00
44140;BME280;29803;51.048;4.686;2024-03-02T03:38:43;99840.13;;;7.20;100.00
44140;BME280;29803;51.048;4.686;2024-03-02T03:41:13;99854.84;;;7.08;100.00
44140;BME280;29803;51.048;4.686;2024-03-02T03:43:44;99852.16;;;7.08;100.00
44140;BME280;29803;51.048;4.686;2024-03-02T03:46:15;99846.66;;;7.01;100.00
44140;BME280;29803;51.048;4.686;2024-03-02T03:48:45;99852.66;;;6.95;100.00
44140;BME280;29803;51.048;4.686;2024-03-02T03:51:16;99852.47;;;6.97;100.00
44140;BME280;29803;51.048;4.686;2024-03-02T03:53:46;99852.31;;;6.90;100.00
44140;BME280;29803;51.048;4.686;2024-03-02T03:56:16;99855.97;;;6.81;100.00
44140;BME280;29803;51.048;4.686;2024-03-02T03:58:47;99853.16;;;6.74;100.00
44140;BME280;29803;51.048;4.686;2024-03-02T04:01:18;99863.13;;;6.72;100.00
44140;BME280;29803;51.048;4.686;2024-03-02T04:03:48;99853.63;;;6.62;100.00
44140;BME280;29803;51.048;4.686;2024-03-02T04:06:19;99863.13;;;6.56;100.00
44140;BME280;29803;51.048;4.686;2024-03-02T04:08:49;99871.44;;;6.61;100.00
44140;BME280;29803;51.048;4.686;2024-03-02T04:11:20;99872.44;;;6.52;100.00
44140;BME280;29803;51.048;4.686;2024-03-02T04:13:50;99873.59;;;6.49;100.00
44140;BME280;29803;51.048;4.686;2024-03-02T04:16:21;99873.75;;;6.40;100.00
44140;BME280;29803;51.048;4.686;2024-03-02T04:18:51;99872.91;;;6.47;100.00
44140;BME280;29803;51.048;4.686;2024-03-02T04:21:22;99880.94;;;6.56;100.00
44140;BME280;29803;51.048;4.686;2024-03-02T04:23:52;99875.28;;;6.51;100.00
44140;BME280;29803;51.048;4.686;2024-03-02T04:26:27;99870.63;;;6.53;100.00
44140;BME280;29803;51.048;4.686;2024-03-02T04:28:58;99877.97;;;6.59;100.00
44140;BME280;29803;51.048;4.686;2024-03-02T04:31:28;99872.78;;;6.57;100.00
44140;BME280;29803;51.048;4.686;2024-03-02T04:33:59;99871.13;;;6.56;100.00
44140;BME280;29803;51.048;4.686;2024-03-02T04:36:29;99876.44;;;6.56;100.00
44140;BME280;29803;51.048;4.686;2024-03-02T04:39:00;99879.94;;;6.48;100.00
44140;BME280;29803;51.048;4.686;2024-03-02T04:41:30;99880.91;;;6.39;100.00
44140;BME280;29803;51.048;4.686;2024-03-02T04:44:01;99875.56;;;6.31;100.00
44140;BME280;29803;51.048;4.686;2024-03-02T04:46:32;99880.72;;;6.25;100.00
44140;BME280;29803;51.048;4.686;2024-03-02T04:49:02;99875.22;;;6.26;100.00
44140;BME280;29803;51.048;4.686;2024-03-02T04:51:32;99885.72;;;6.28;100.00
44140;BME280;29803;51.048;4.686;2024-03-02T04:54:03;99894.69;;;6.27;100.00
44140;BME280;29803;51.048;4.686;2024-03-02T04:56:34;99892.84;;;6.27;100.00
44140;BME280;29803;51.048;4.686;2024-03-02T04:59:15;99882.84;;;6.21;100.00
44140;BME280;29803;51.048;4.686;2024-03-02T05:01:46;99900.47;;;6.14;100.00
44140;BME280;29803;51.048;4.686;2024-03-02T05:04:17;99897.59;;;6.07;100.00
44140;BME280;29803;51.048;4.686;2024-03-02T05:06:48;99903.91;;;5.98;100.00
44140;BME280;29803;51.048;4.686;2024-03-02T05:09:22;99902.56;;;5.94;100.00
44140;BME280;29803;51.048;4.686;2024-03-02T05:11:53;99906.06;;;5.94;100.00
44140;BME280;29803;51.048;4.686;2024-03-02T05:14:40;99906.34;;;5.91;100.00
44140;BME280;29803;51.048;4.686;2024-03-02T05:17:10;99908.16;;;5.91;100.00
44140;BME280;29803;51.048;4.686;2024-03-02T05:19:41;99910.63;;;5.84;100.00
44140;BME280;29803;51.048;4.686;2024-03-02T05:22:11;99908.28;;;5.81;100.00
44140;BME280;29803;51.048;4.686;2024-03-02T05:24:42;99911.09;;;5.80;100.00
44140;BME280;29803;51.048;4.686;2024-03-02T05:27:12;99917.44;;;5.87;100.00
44140;BME280;29803;51.048;4.686;2024-03-02T05:29:43;99909.63;;;5.85;100.00
44140;BME280;29803;51.048;4.686;2024-03-02T05:32:13;99918.63;;;5.84;100.00
44140;BME280;29803;51.048;4.686;2024-03-02T05:34:44;99917.91;;;5.82;100.00
44140;BME280;29803;51.048;4.686;2024-03-02T05:37:14;99921.22;;;5.76;100.00
44140;BME280;29803;51.048;4.686;2024-03-02T05:39:44;99920.38;;;5.76;100.00
44140;BME280;29803;51.048;4.686;2024-03-02T05:42:15;99919.25;;;5.78;100.00
44140;BME280;29803;51.048;4.686;2024-03-02T05:44:46;99911.41;;;5.77;100.00
44140;BME280;29803;51.048;4.686;2024-03-02T05:47:18;99908.06;;;5.75;100.00
44140;BME280;29803;51.048;4.686;2024-03-02T05:49:49;99916.53;;;5.70;100.00
44140;BME280;29803;51.048;4.686;2024-03-02T05:52:19;99916.53;;;5.70;100.00
44140;BME280;29803;51.048;4.686;2024-03-02T05:54:50;99919.34;;;5.68;100.00
44140;BME280;29803;51.048;4.686;2024-03-02T05:57:21;99918.53;;;5.68;100.00
44140;BME280;29803;51.048;4.686;2024-03-02T06:00:23;99913.09;;;5.78;100.00
44140;BME280;29803;51.048;4.686;2024-03-02T06:02:54;99911.09;;;5.80;100.00
44140;BME280;29803;51.048;4.686;2024-03-02T06:05:24;99920.56;;;5.82;100.00
44140;BME280;29803;51.048;4.686;2024-03-02T06:07:55;99920.44;;;5.84;100.00
44140;BME280;29803;51.048;4.686;2024-03-02T06:10:25;99924.09;;;5.83;100.00
44140;BME280;29803;51.048;4.686;2024-03-02T06:12:56;99923.63;;;5.87;100.00
44140;BME280;29803;51.048;4.686;2024-03-02T06:15:26;99921.09;;;5.86;100.00
44140;BME280;29803;51.048;4.686;2024-03-02T06:17:57;99923.63;;;5.87;100.00
44140;BME280;29803;51.048;4.686;2024-03-02T06:20:27;99931.16;;;5.92;100.00
44140;BME280;29803;51.048;4.686;2024-03-02T06:23:01;99929.63;;;5.89;100.00
44140;BME280;29803;51.048;4.686;2024-03-02T06:25:31;99930.53;;;5.98;100.00
44140;BME280;29803;51.048;4.686;2024-03-02T06:28:02;99932.72;;;6.03;100.00
44140;BME280;29803;51.048;4.686;2024-03-02T06:30:34;99937.06;;;6.04;100.00
44140;BME280;29803;51.048;4.686;2024-03-02T06:33:04;99934.88;;;6.07;100.00
44140;BME280;29803;51.048;4.686;2024-03-02T06:35:36;99933.28;;;6.14;100.00
44140;BME280;29803;51.048;4.686;2024-03-02T06:38:06;99935.59;;;6.17;100.00
44140;BME280;29803;51.048;4.686;2024-03-02T06:40:37;99930.31;;;6.26;100.00
44140;BME280;29803;51.048;4.686;2024-03-02T06:43:09;99930.84;;;6.29;100.00
44140;BME280;29803;51.048;4.686;2024-03-02T06:45:40;99928.34;;;6.28;100.00
44140;BME280;29803;51.048;4.686;2024-03-02T06:48:11;99935.00;;;6.32;100.00
44140;BME280;29803;51.048;4.686;2024-03-02T06:50:41;99940.53;;;6.38;100.00
44140;BME280;29803;51.048;4.686;2024-03-02T06:53:11;99940.53;;;6.38;100.00
44140;BME280;29803;51.048;4.686;2024-03-02T06:55:42;99940.19;;;6.33;100.00
44140;BME280;29803;51.048;4.686;2024-03-02T06:58:13;99946.00;;;6.37;100.00
44140;BME280;29803;51.048;4.686;2024-03-02T07:00:45;99947.19;;;6.42;100.00
44140;BME280;29803;51.048;4.686;2024-03-02T07:03:15;99945.50;;;6.41;100.00
44140;BME280;29803;51.048;4.686;2024-03-02T07:05:46;99945.84;;;6.38;100.00
44140;BME280;29803;51.048;4.686;2024-03-02T07:08:18;99954.84;;;6.45;100.00
44140;BME280;29803;51.048;4.686;2024-03-02T07:10:48;99947.19;;;6.42;100.00
44140;BME280;29803;51.048;4.686;2024-03-02T07:13:19;99955.38;;;6.57;100.00
44140;BME280;29803;51.048;4.686;2024-03-02T07:15:50;99963.44;;;6.73;100.00
44140;BME280;29803;51.048;4.686;2024-03-02T07:18:33;99958.31;;;7.13;100.00
44140;BME280;29803;51.048;4.686;2024-03-02T07:21:07;99962.00;;;7.52;100.00
44140;BME280;29803;51.048;4.686;2024-03-02T07:23:38;99959.59;;;7.98;100.00
44140;BME280;29803;51.048;4.686;2024-03-02T07:26:08;99963.13;;;8.46;100.00
44140;BME280;29803;51.048;4.686;2024-03-02T07:28:38;99966.47;;;8.79;100.00
44140;BME280;29803;51.048;4.686;2024-03-02T07:31:10;99966.56;;;8.94;100.00
44140;BME280;29803;51.048;4.686;2024-03-02T07:33:41;99975.31;;;8.80;100.00
44140;BME280;29803;51.048;4.686;2024-03-02T07:36:14;99975.88;;;8.67;100.00
44140;BME280;29803;51.048;4.686;2024-03-02T07:38:44;99974.66;;;8.78;100.00
44140;BME280;29803;51.048;4.686;2024-03-02T07:41:15;99968.09;;;8.89;100.00
44140;BME280;29803;51.048;4.686;2024-03-02T07:43:46;99964.78;;;9.10;100.00
44140;BME280;29803;51.048;4.686;2024-03-02T07:46:17;99976.19;;;9.49;100.00
44140;BME280;29803;51.048;4.686;2024-03-02T07:48:48;99967.19;;;9.80;100.00
44140;BME280;29803;51.048;4.686;2024-03-02T07:51:19;99970.78;;;9.87;100.00
44140;BME280;29803;51.048;4.686;2024-03-02T07:53:49;99969.91;;;10.09;100.00
44140;BME280;29803;51.048;4.686;2024-03-02T07:56:20;99963.69;;;10.09;100.00
44140;BME280;29803;51.048;4.686;2024-03-02T07:58:52;99969.75;;;10.41;100.00
44140;BME280;29803;51.048;4.686;2024-03-02T08:01:23;99954.25;;;10.57;100.00
44140;BME280;29803;51.048;4.686;2024-03-02T08:03:53;99958.97;;;10.70;100.00
44140;BME280;29803;51.048;4.686;2024-03-02T08:06:26;99956.75;;;10.59;100.00
44140;BME280;29803;51.048;4.686;2024-03-02T08:08:59;99971.88;;;10.45;100.00
44140;BME280;29803;51.048;4.686;2024-03-02T08:11:30;99965.47;;;10.31;100.00
44140;BME280;29803;51.048;4.686;2024-03-02T08:14:02;99967.31;;;10.16;100.00
44140;BME280;29803;51.048;4.686;2024-03-02T08:16:35;99973.88;;;10.28;100.00
44140;BME280;29803;51.048;4.686;2024-03-02T08:19:07;99973.72;;;10.45;100.00
44140;BME280;29803;51.048;4.686;2024-03-02T08:21:39;99984.44;;;10.59;100.00
44140;BME280;29803;51.048;4.686;2024-03-02T08:24:09;99979.50;;;10.48;100.00
44140;BME280;29803;51.048;4.686;2024-03-02T08:26:43;99983.19;;;10.77;100.00
44140;BME280;29803;51.048;4.686;2024-03-02T08:29:15;99974.19;;;10.84;100.00
44140;BME280;29803;51.048;4.686;2024-03-02T08:31:46;99970.66;;;10.84;100.00
44140;BME280;29803;51.048;4.686;2024-03-02T08:34:17;99965.91;;;11.01;100.00
44140;BME280;29803;51.048;4.686;2024-03-02T08:36:49;99972.88;;;11.38;100.00
44140;BME280;29803;51.048;4.686;2024-03-02T08:39:20;99968.16;;;11.40;100.00
44140;BME280;29803;51.048;4.686;2024-03-02T08:41:50;99972.00;;;11.31;100.00
44140;BME280;29803;51.048;4.686;2024-03-02T08:44:27;99984.69;;;11.22;100.00
44140;BME280;29803;51.048;4.686;2024-03-02T08:47:00;99989.06;;;11.73;100.00
44140;BME280;29803;51.048;4.686;2024-03-02T08:49:32;99994.22;;;11.67;100.00
44140;BME280;29803;51.048;4.686;2024-03-02T08:52:03;99992.84;;;11.50;100.00
44140;BME280;29803;51.048;4.686;2024-03-02T08:54:35;99991.03;;;11.57;100.00
44140;BME280;29803;51.048;4.686;2024-03-02T08:57:08;99999.88;;;11.79;100.00
44140;BME280;29803;51.048;4.686;2024-03-02T08:59:40;100001.19;;;12.11;100.00
44140;BME280;29803;51.048;4.686;2024-03-02T09:02:11;99998.75;;;12.16;100.00
44140;BME280;29803;51.048;4.686;2024-03-02T09:04:46;100000.75;;;12.08;100.00
44140;BME280;29803;51.048;4.686;2024-03-02T09:07:18;99994.88;;;12.26;100.00
44140;BME280;29803;51.048;4.686;2024-03-02T09:09:49;99995.81;;;12.11;100.00
44140;BME280;29803;51.048;4.686;2024-03-02T09:12:19;99998.78;;;12.23;100.00
44140;BME280;29803;51.048;4.686;2024-03-02T09:14:50;99997.31;;;12.55;100.00
44140;BME280;29803;51.048;4.686;2024-03-02T09:17:20;99995.63;;;13.02;100.00
44140;BME280;29803;51.048;4.686;2024-03-02T09:19:51;100003.09;;;13.20;100.00
44140;BME280;29803;51.048;4.686;2024-03-02T09:22:23;100000.41;;;13.13;100.00
44140;BME280;29803;51.048;4.686;2024-03-02T09:24:53;99995.63;;;13.02;100.00
44140;BME280;29803;51.048;4.686;2024-03-02T09:27:24;99995.91;;;13.34;100.00
44140;BME280;29803;51.048;4.686;2024-03-02T09:29:54;99990.13;;;13.43;100.00
44140;BME280;29803;51.048;4.686;2024-03-02T09:32:25;99993.44;;;12.71;100.00
44140;BME280;29803;51.048;4.686;2024-03-02T09:34:56;99983.41;;;12.45;100.00
44140;BME280;29803;51.048;4.686;2024-03-02T09:37:28;99986.00;;;12.32;100.00
44140;BME280;29803;51.048;4.686;2024-03-02T09:39:59;99987.19;;;12.64;100.00
44140;BME280;29803;51.048;4.686;2024-03-02T09:42:30;99975.81;;;12.68;100.00
44140;BME280;29803;51.048;4.686;2024-03-02T09:45:01;99970.28;;;12.83;100.00
44140;BME280;29803;51.048;4.686;2024-03-02T09:47:32;99968.41;;;12.84;100.00
44140;BME280;29803;51.048;4.686;2024-03-02T09:50:03;99959.53;;;12.83;100.00
44140;BME280;29803;51.048;4.686;2024-03-02T09:52:34;99963.88;;;12.84;100.00
44140;BME280;29803;51.048;4.686;2024-03-02T09:55:06;99967.44;;;12.91;100.00
44140;BME280;29803;51.048;4.686;2024-03-02T09:57:37;99973.03;;;13.03;100.00
44140;BME280;29803;51.048;4.686;2024-03-02T10:00:10;99961.88;;;13.06;100.00
44140;BME280;29803;51.048;4.686;2024-03-02T10:02:45;99960.69;;;13.29;100.00
44140;BME280;29803;51.048;4.686;2024-03-02T10:05:26;99963.56;;;13.20;100.00
44140;BME280;29803;51.048;4.686;2024-03-02T10:07:59;99950.94;;;13.34;100.00
44140;BME280;29803;51.048;4.686;2024-03-02T10:13:07;99956.75;;;13.38;100.00
44140;BME280;29803;51.048;4.686;2024-03-02T10:15:39;99956.66;;;12.98;100.00
44140;BME280;29803;51.048;4.686;2024-03-02T10:21:31;99945.59;;;12.18;100.00
44140;BME280;29803;51.048;4.686;2024-03-02T10:24:07;99944.28;;;12.08;100.00
44140;BME280;29803;51.048;4.686;2024-03-02T10:26:37;99951.19;;;12.24;100.00
44140;BME280;29803;51.048;4.686;2024-03-02T10:29:11;99951.22;;;12.85;100.00
44140;BME280;29803;51.048;4.686;2024-03-02T10:31:44;99956.88;;;12.96;100.00
44140;BME280;29803;51.048;4.686;2024-03-02T10:34:15;99950.84;;;12.88;100.00
44140;BME280;29803;51.048;4.686;2024-03-02T10:36:47;99952.53;;;13.09;100.00
44140;BME280;29803;51.048;4.686;2024-03-02T10:39:17;99948.41;;;13.06;100.00
44140;BME280;29803;51.048;4.686;2024-03-02T10:41:49;99956.44;;;12.86;100.00
44140;BME280;29803;51.048;4.686;2024-03-02T10:44:21;99950.19;;;12.79;100.00
44140;BME280;29803;51.048;4.686;2024-03-02T10:46:53;99949.81;;;12.89;100.00
44140;BME280;29803;51.048;4.686;2024-03-02T10:49:26;99946.88;;;12.84;100.00
44140;BME280;29803;51.048;4.686;2024-03-02T10:51:59;99942.81;;;13.08;100.00
44140;BME280;29803;51.048;4.686;2024-03-02T10:54:30;99939.97;;;13.23;100.00
44140;BME280;29803;51.048;4.686;2024-03-02T10:57:07;99938.16;;;12.68;100.00
44140;BME280;29803;51.048;4.686;2024-03-02T10:59:51;99942.59;;;13.03;100.00
44140;BME280;29803;51.048;4.686;2024-03-02T11:02:23;99942.38;;;13.04;100.00
44140;BME280;29803;51.048;4.686;2024-03-02T11:04:56;99939.16;;;13.42;100.00
44140;BME280;29803;51.048;4.686;2024-03-02T11:07:30;99929.97;;;13.10;100.00
44140;BME280;29803;51.048;4.686;2024-03-02T11:10:03;99934.72;;;13.01;100.00
44140;BME280;29803;51.048;4.686;2024-03-02T11:12:44;99931.41;;;12.99;100.00
44140;BME280;29803;51.048;4.686;2024-03-02T11:15:18;99938.94;;;13.63;100.00
44140;BME280;29803;51.048;4.686;2024-03-02T11:17:50;99926.91;;;13.72;100.00
44140;BME280;29803;51.048;4.686;2024-03-02T11:20:21;99930.03;;;13.63;100.00
44140;BME280;29803;51.048;4.686;2024-03-02T11:22:54;99932.09;;;13.74;100.00
44140;BME280;29803;51.048;4.686;2024-03-02T11:25:28;99920.91;;;13.70;100.00
44140;BME280;29803;51.048;4.686;2024-03-02T11:28:04;99912.19;;;13.29;100.00
44140;BME280;29803;51.048;4.686;2024-03-02T11:33:11;99904.50;;;13.12;100.00
44140;BME280;29803;51.048;4.686;2024-03-02T11:35:54;99891.47;;;13.23;100.00
44140;BME280;29803;51.048;4.686;2024-03-02T11:38:31;99893.13;;;13.63;100.00
44140;BME280;29803;51.048;4.686;2024-03-02T11:41:06;99893.53;;;13.73;100.00
44140;BME280;29803;51.048;4.686;2024-03-02T11:43:39;99891.19;;;13.97;100.00
44140;BME280;29803;51.048;4.686;2024-03-02T11:46:10;99889.19;;;13.59;100.00
44140;BME280;29803;51.048;4.686;2024-03-02T11:48:41;99878.66;;;13.31;100.00
44140;BME280;29803;51.048;4.686;2024-03-02T11:51:12;99876.97;;;13.50;100.00
44140;BME280;29803;51.048;4.686;2024-03-02T11:53:44;99872.00;;;13.34;100.00
44140;BME280;29803;51.048;4.686;2024-03-02T11:56:16;99873.25;;;13.51;100.00
44140;BME280;29803;51.048;4.686;2024-03-02T11:58:53;99861.22;;;13.54;100.00
44140;BME280;29803;51.048;4.686;2024-03-02T12:01:24;99859.16;;;13.36;100.00
44140;BME280;29803;51.048;4.686;2024-03-02T12:04:00;99863.69;;;13.09;100.00
44140;BME280;29803;51.048;4.686;2024-03-02T12:06:34;99857.91;;;13.25;100.00
44140;BME280;29803;51.048;4.686;2024-03-02T12:09:13;99865.78;;;13.40;100.00
44140;BME280;29803;51.048;4.686;2024-03-02T12:11:45;99846.06;;;13.59;100.00
44140;BME280;29803;51.048;4.686;2024-03-02T12:14:16;99840.81;;;13.84;100.00
44140;BME280;29803;51.048;4.686;2024-03-02T12:16:47;99833.03;;;13.56;100.00
44140;BME280;29803;51.048;4.686;2024-03-02T12:19:18;99825.97;;;13.55;100.00
44140;BME280;29803;51.048;4.686;2024-03-02T12:21:50;99814.75;;;13.65;100.00
44140;BME280;29803;51.048;4.686;2024-03-02T12:24:22;99828.47;;;13.30;100.00
44140;BME280;29803;51.048;4.686;2024-03-02T12:26:53;99823.28;;;13.35;100.00
44140;BME280;29803;51.048;4.686;2024-03-02T12:29:24;99829.28;;;13.57;100.00
44140;BME280;29803;51.048;4.686;2024-03-02T12:31:55;99823.50;;;13.34;100.00
44140;BME280;29803;51.048;4.686;2024-03-02T12:34:26;99820.19;;;13.52;100.00
44140;BME280;29803;51.048;4.686;2024-03-02T12:37:00;99824.50;;;13.66;100.00
44140;BME280;29803;51.048;4.686;2024-03-02T12:39:31;99815.50;;;13.92;100.00
44140;BME280;29803;51.048;4.686;2024-03-02T12:42:03;99815.78;;;13.77;100.00
44140;BME280;29803;51.048;4.686;2024-03-02T12:44:34;99818.25;;;13.79;100.00
44140;BME280;29803;51.048;4.686;2024-03-02T12:47:05;99809.59;;;13.57;100.00
44140;BME280;29803;51.048;4.686;2024-03-02T12:49:35;99809.22;;;13.46;100.00
44140;BME280;29803;51.048;4.686;2024-03-02T12:52:06;99815.63;;;13.39;100.00
44140;BME280;29803;51.048;4.686;2024-03-02T12:54:37;99804.25;;;13.24;100.00
44140;BME280;29803;51.048;4.686;2024-03-02T12:57:07;99806.09;;;13.30;100.00
44140;BME280;29803;51.048;4.686;2024-03-02T12:59:38;99797.66;;;13.26;100.00
44140;BME280;29803;51.048;4.686;2024-03-02T13:02:17;99806.31;;;13.28;100.00
44140;BME280;29803;51.048;4.686;2024-03-02T13:04:55;99810.03;;;13.34;100.00
44140;BME280;29803;51.048;4.686;2024-03-02T13:07:43;99801.16;;;13.33;100.00
44140;BME280;29803;51.048;4.686;2024-03-02T13:10:16;99801.97;;;13.40;100.00
44140;BME280;29803;51.048;4.686;2024-03-02T13:12:47;99806.09;;;13.10;100.00
44140;BME280;29803;51.048;4.686;2024-03-02T13:15:17;99788.06;;;13.43;100.00
44140;BME280;29803;51.048;4.686;2024-03-02T13:17:48;99787.63;;;13.53;100.00
44140;BME280;29803;51.048;4.686;2024-03-02T13:20:19;99778.81;;;13.84;100.00
44140;BME280;29803;51.048;4.686;2024-03-02T13:22:54;99771.88;;;14.08;100.00
44140;BME280;29803;51.048;4.686;2024-03-02T13:25:29;99770.69;;;13.97;100.00
44140;BME280;29803;51.048;4.686;2024-03-02T13:28:03;99767.34;;;13.95;100.00